createdAt,value
2022-12-16T00:00:15.970Z,83.31
2022-12-16T00:02:42.821Z,83.22
2022-12-16T00:05:09.587Z,82.04
2022-12-16T00:07:38.352Z,82.28
2022-12-16T00:10:08.723Z,82.68
2022-12-16T00:12:35.214Z,81.92
2022-12-16T00:15:01.752Z,81.48
2022-12-16T00:17:28.412Z,81.44
2022-12-16T00:19:54.882Z,81.65
2022-12-16T00:22:22.708Z,81.52
2022-12-16T00:24:49.481Z,81.86
2022-12-16T00:27:17.125Z,81.93
2022-12-16T00:29:45.950Z,81.28
2022-12-16T00:32:12.605Z,81.79
2022-12-16T00:34:39.154Z,81.26
2022-12-16T00:37:05.664Z,81.31
2022-12-16T00:39:32.606Z,81.65
2022-12-16T00:41:59.137Z,81.16
2022-12-16T00:44:25.660Z,81.32
2022-12-16T00:46:52.262Z,80.89
2022-12-16T00:49:18.826Z,81.30
2022-12-16T00:51:45.456Z,81.02
2022-12-16T00:54:11.965Z,81.37
2022-12-16T00:56:38.539Z,81.00
2022-12-16T00:59:05.081Z,81.44
2022-12-16T01:01:31.699Z,80.92
2022-12-16T01:03:58.448Z,81.32
2022-12-16T01:06:25.086Z,81.50
2022-12-16T01:08:51.679Z,80.83
2022-12-16T01:11:20.672Z,81.06
2022-12-16T01:13:51.931Z,81.35
2022-12-16T01:16:21.476Z,80.75
2022-12-16T01:18:48.127Z,81.37
2022-12-16T01:21:15.635Z,80.96
2022-12-16T01:23:42.585Z,81.16
2022-12-16T01:26:15.043Z,80.68
2022-12-16T01:28:41.693Z,80.94
2022-12-16T01:31:08.227Z,80.95
2022-12-16T01:33:37.358Z,80.59
2022-12-16T01:36:06.746Z,81.08
2022-12-16T01:38:33.684Z,80.61
2022-12-16T01:41:03.024Z,81.27
2022-12-16T01:43:33.547Z,80.73
2022-12-16T01:46:09.745Z,81.17
2022-12-16T01:48:39.497Z,80.99
2022-12-16T01:51:23.421Z,80.97
2022-12-16T01:53:56.616Z,80.89
2022-12-16T01:56:27.193Z,80.67
2022-12-16T01:58:55.502Z,81.02
2022-12-16T02:01:22.863Z,81.03
2022-12-16T02:03:54.152Z,81.30
2022-12-16T02:06:20.895Z,80.45
2022-12-16T02:08:54.975Z,80.37
2022-12-16T02:11:29.616Z,80.54
2022-12-16T02:14:14.309Z,81.11
2022-12-16T02:16:45.634Z,80.40
2022-12-16T02:19:49.407Z,80.48
2022-12-16T02:22:21.918Z,80.96
2022-12-16T02:25:03.300Z,80.99
2022-12-16T02:27:55.015Z,80.94
2022-12-16T02:30:53.885Z,80.95
2022-12-16T02:33:44.520Z,80.90
2022-12-16T02:36:30.419Z,81.16
2022-12-16T02:39:02.305Z,81.00
2022-12-16T02:42:07.221Z,81.13
2022-12-16T02:44:44.694Z,81.19
2022-12-16T02:47:11.231Z,80.73
2022-12-16T02:49:52.495Z,81.29
2022-12-16T02:52:24.824Z,81.41
2022-12-16T02:55:04.827Z,81.19
2022-12-16T02:58:23.044Z,80.95
2022-12-16T03:01:10.974Z,80.87
2022-12-16T03:03:43.471Z,81.08
2022-12-16T03:06:12.638Z,81.13
2022-12-16T03:08:43.610Z,81.08
2022-12-16T03:11:10.234Z,81.40
2022-12-16T03:13:46.294Z,81.43
2022-12-16T03:16:16.146Z,81.60
2022-12-16T03:18:47.400Z,81.37
2022-12-16T03:21:14.707Z,81.20
2022-12-16T03:23:59.019Z,81.30
2022-12-16T03:26:34.590Z,80.99
2022-12-16T03:29:10.221Z,81.36
2022-12-16T03:31:48.768Z,81.44
2022-12-16T03:34:35.454Z,81.24
2022-12-16T03:37:09.144Z,81.35
2022-12-16T03:39:41.966Z,81.06
2022-12-16T03:42:09.934Z,80.92
2022-12-16T03:44:36.954Z,81.46
2022-12-16T03:47:05.746Z,81.39
2022-12-16T03:49:32.376Z,81.20
2022-12-16T03:51:59.006Z,80.99
2022-12-16T03:54:28.107Z,80.97
2022-12-16T03:56:54.688Z,81.39
2022-12-16T03:59:23.607Z,80.79
2022-12-16T04:01:50.360Z,81.34
2022-12-16T04:04:17.944Z,81.16
2022-12-16T04:06:44.549Z,81.20
2022-12-16T04:09:11.158Z,80.98
2022-12-16T04:11:56.420Z,81.11
2022-12-16T04:14:41.766Z,80.78
2022-12-16T04:17:31.297Z,80.88
2022-12-16T04:20:16.793Z,81.23
2022-12-16T04:23:02.691Z,80.73
2022-12-16T04:25:35.877Z,81.02
2022-12-16T04:28:04.743Z,81.20
2022-12-16T04:30:38.562Z,80.98
2022-12-16T04:33:30.335Z,81.16
2022-12-16T04:36:15.486Z,80.91
2022-12-16T04:39:03.065Z,81.05
2022-12-16T04:41:48.571Z,80.82
2022-12-16T04:44:34.206Z,81.24
2022-12-16T04:47:19.225Z,80.86
2022-12-16T04:50:04.537Z,81.15
2022-12-16T04:52:51.932Z,81.07
2022-12-16T04:55:37.147Z,81.10
2022-12-16T04:58:23.413Z,81.48
2022-12-16T05:01:08.760Z,81.10
2022-12-16T05:03:54.736Z,81.07
2022-12-16T05:06:40.447Z,81.13
2022-12-16T05:09:27.771Z,81.17
2022-12-16T05:12:13.004Z,81.25
2022-12-16T05:14:58.442Z,81.60
2022-12-16T05:17:43.868Z,81.90
2022-12-16T05:20:30.022Z,81.61
2022-12-16T05:23:15.821Z,81.51
2022-12-16T05:26:01.509Z,81.72
2022-12-16T05:28:46.803Z,81.89
2022-12-16T05:31:42.363Z,81.94
2022-12-16T05:34:28.507Z,81.89
2022-12-16T05:37:13.778Z,81.89
2022-12-16T05:40:01.404Z,82.29
2022-12-16T05:42:46.381Z,82.11
2022-12-16T05:45:31.821Z,81.69
2022-12-16T05:48:17.119Z,82.29
2022-12-16T05:51:05.315Z,82.43
2022-12-16T05:53:50.771Z,82.54
2022-12-16T05:56:46.164Z,82.33
2022-12-16T05:59:30.978Z,82.38
2022-12-16T06:02:16.019Z,82.54
2022-12-16T06:05:03.916Z,82.71
2022-12-16T06:07:51.256Z,82.78
2022-12-16T06:10:36.548Z,82.95
2022-12-16T06:13:34.802Z,83.13
2022-12-16T06:16:22.634Z,83.32
2022-12-16T06:19:07.761Z,83.39
2022-12-16T06:21:52.760Z,83.96
2022-12-16T06:24:38.296Z,84.31
2022-12-16T06:27:23.599Z,84.91
2022-12-16T06:30:09.377Z,85.26
2022-12-16T06:32:54.634Z,85.53
2022-12-16T06:35:42.019Z,86.20
2022-12-16T06:38:27.252Z,85.95
2022-12-16T06:41:12.078Z,86.66
2022-12-16T06:43:57.090Z,86.38
2022-12-16T06:46:41.882Z,86.43
2022-12-16T06:49:29.545Z,87.09
2022-12-16T06:52:16.399Z,87.18
2022-12-16T06:55:04.301Z,87.47
2022-12-16T06:57:49.431Z,87.15
2022-12-16T07:00:34.633Z,87.52
2022-12-16T07:03:19.791Z,87.64
2022-12-16T07:06:10.969Z,87.78
2022-12-16T07:08:56.202Z,87.87
2022-12-16T07:11:41.065Z,87.89
2022-12-16T07:14:28.499Z,87.58
2022-12-16T07:17:17.076Z,87.82
2022-12-16T07:20:02.904Z,87.66
2022-12-16T07:22:51.146Z,87.79
2022-12-16T07:25:39.354Z,87.75
2022-12-16T07:28:24.501Z,88.21
2022-12-16T07:31:09.344Z,87.90
2022-12-16T07:33:54.605Z,88.42
2022-12-16T07:36:39.708Z,87.85
2022-12-16T07:39:24.948Z,88.53
2022-12-16T07:42:09.979Z,88.13
2022-12-16T07:44:55.629Z,88.10
2022-12-16T07:47:40.944Z,87.98
2022-12-16T07:50:26.353Z,88.53
2022-12-16T07:53:19.032Z,88.21
2022-12-16T07:56:04.857Z,88.04
2022-12-16T07:58:50.511Z,88.53
2022-12-16T08:01:35.969Z,88.30
2022-12-16T08:04:21.384Z,88.48
2022-12-16T08:07:06.476Z,88.58
2022-12-16T08:09:51.278Z,88.43
2022-12-16T08:12:36.469Z,88.49
2022-12-16T08:15:21.718Z,88.00
2022-12-16T08:18:09.106Z,88.34
2022-12-16T08:20:55.393Z,88.65
2022-12-16T08:23:42.910Z,88.61
2022-12-16T08:26:28.364Z,88.23
2022-12-16T08:29:42.568Z,88.04
2022-12-16T08:32:18.803Z,88.44
2022-12-16T08:35:04.187Z,88.34
2022-12-16T08:37:49.276Z,88.52
2022-12-16T08:40:37.213Z,87.87
2022-12-16T08:43:22.849Z,87.82
2022-12-16T08:46:12.284Z,88.02
2022-12-16T08:48:57.590Z,88.16
2022-12-16T08:51:42.459Z,87.78
2022-12-16T08:54:28.817Z,88.09
2022-12-16T08:57:14.182Z,87.85
2022-12-16T08:59:59.169Z,87.91
2022-12-16T09:02:44.702Z,87.64
2022-12-16T09:05:32.529Z,87.89
2022-12-16T09:08:19.168Z,87.44
2022-12-16T09:11:04.759Z,87.88
2022-12-16T09:13:49.708Z,87.74
2022-12-16T09:16:37.145Z,88.02
2022-12-16T09:19:22.498Z,87.32
2022-12-16T09:22:07.457Z,87.69
2022-12-16T09:24:53.888Z,87.55
2022-12-16T09:27:41.062Z,87.83
2022-12-16T09:30:26.891Z,87.14
2022-12-16T09:33:14.240Z,86.83
2022-12-16T09:35:59.332Z,87.22
2022-12-16T09:38:46.849Z,86.38
2022-12-16T09:42:03.874Z,85.42
2022-12-16T09:44:54.326Z,84.90
2022-12-16T09:47:58.147Z,84.68
2022-12-16T09:50:45.971Z,84.17
2022-12-16T09:53:38.004Z,83.51
2022-12-16T09:56:32.125Z,83.06
2022-12-16T09:59:20.548Z,82.23
2022-12-16T10:02:06.378Z,81.98
2022-12-16T10:04:54.571Z,82.51
2022-12-16T10:07:47.576Z,82.32
2022-12-16T10:10:40.211Z,82.17
2022-12-16T10:13:45.613Z,82.55
2022-12-16T10:16:47.637Z,82.82
2022-12-16T10:19:51.137Z,82.77
2022-12-16T10:22:48.324Z,82.54
2022-12-16T10:25:40.793Z,82.93
2022-12-16T10:28:35.175Z,82.84
2022-12-16T10:31:32.120Z,82.47
2022-12-16T10:34:17.701Z,82.04
2022-12-16T10:37:11.035Z,82.05
2022-12-16T10:40:03.617Z,82.37
2022-12-16T10:42:58.197Z,82.08
2022-12-16T10:45:54.623Z,80.96
2022-12-16T10:48:56.283Z,81.12
2022-12-16T10:51:47.469Z,80.76
2022-12-16T10:54:43.315Z,81.63
2022-12-16T10:57:39.110Z,81.25
2022-12-16T11:00:38.968Z,81.65
2022-12-16T11:03:42.372Z,82.17
2022-12-16T11:06:29.004Z,81.80
2022-12-16T11:09:34.131Z,81.98
2022-12-16T11:12:45.558Z,81.70
2022-12-16T11:15:42.152Z,81.50
2022-12-16T11:18:40.492Z,81.10
2022-12-16T11:21:38.238Z,80.88
2022-12-16T11:24:26.268Z,80.98
2022-12-16T11:27:16.673Z,80.79
2022-12-16T11:30:16.606Z,80.73
2022-12-16T11:33:07.027Z,80.42
2022-12-16T11:35:59.946Z,81.16
2022-12-16T11:39:08.257Z,81.32
2022-12-16T11:42:02.939Z,81.30
2022-12-16T11:44:54.996Z,81.01
2022-12-16T11:47:59.229Z,81.45
2022-12-16T11:50:47.712Z,81.17
2022-12-16T11:53:48.446Z,80.63
2022-12-16T11:56:39.057Z,80.23
2022-12-16T11:59:46.663Z,79.76
2022-12-16T12:02:39.760Z,78.84
2022-12-16T12:05:25.566Z,78.26
2022-12-16T12:08:36.976Z,79.09
2022-12-16T12:11:37.953Z,78.77
2022-12-16T12:14:33.933Z,78.85
2022-12-16T12:17:29.410Z,79.34
2022-12-16T12:20:45.537Z,79.87
2022-12-16T12:23:40.947Z,79.05
2022-12-16T12:26:37.627Z,79.59
2022-12-16T12:29:52.525Z,79.35
2022-12-16T12:33:25.463Z,79.65
2022-12-16T12:36:38.652Z,79.58
2022-12-16T12:39:23.646Z,79.64
2022-12-16T12:42:27.147Z,79.83
2022-12-16T12:45:40.438Z,80.01
2022-12-16T12:48:45.396Z,79.34
2022-12-16T12:51:30.662Z,80.00
2022-12-16T12:54:59.169Z,79.97
2022-12-16T12:57:47.643Z,80.26
2022-12-16T13:00:32.884Z,80.03
2022-12-16T13:03:32.356Z,80.44
2022-12-16T13:06:18.584Z,79.64
2022-12-16T13:09:09.609Z,80.08
2022-12-16T13:11:57.462Z,80.56
2022-12-16T13:14:51.759Z,80.87
2022-12-16T13:17:42.311Z,80.94
2022-12-16T13:20:50.566Z,80.31
2022-12-16T13:23:52.114Z,80.52
2022-12-16T13:26:39.443Z,80.66
2022-12-16T13:29:47.415Z,80.83
2022-12-16T13:32:36.972Z,80.46
2022-12-16T13:35:25.638Z,80.27
2022-12-16T13:38:22.928Z,80.24
2022-12-16T13:41:16.146Z,80.49
2022-12-16T13:44:13.974Z,80.58
2022-12-16T13:47:01.137Z,80.81
2022-12-16T13:49:55.682Z,80.13
2022-12-16T13:52:56.368Z,80.43
2022-12-16T13:55:47.358Z,81.09
2022-12-16T13:58:53.204Z,81.03
2022-12-16T14:01:46.156Z,81.09
2022-12-16T14:04:38.976Z,80.23
2022-12-16T14:07:24.944Z,81.13
2022-12-16T14:10:09.890Z,80.88
2022-12-16T14:13:08.829Z,81.28
2022-12-16T14:16:12.816Z,81.68
2022-12-16T14:19:14.267Z,81.45
2022-12-16T14:22:27.548Z,81.38
2022-12-16T14:25:12.607Z,81.77
2022-12-16T14:27:58.612Z,81.83
2022-12-16T14:30:44.540Z,81.54
2022-12-16T14:33:49.097Z,81.90
2022-12-16T14:36:46.418Z,82.07
2022-12-16T14:39:40.097Z,82.10
2022-12-16T14:42:41.430Z,81.97
2022-12-16T14:45:38.940Z,82.43
2022-12-16T14:48:46.037Z,81.93
2022-12-16T14:51:57.063Z,82.70
2022-12-16T14:55:01.770Z,81.57
2022-12-16T14:57:49.750Z,82.40
2022-12-16T15:00:40.597Z,82.77
2022-12-16T15:03:36.195Z,82.35
2022-12-16T15:06:24.640Z,82.34
2022-12-16T15:09:14.933Z,82.57
2022-12-16T15:12:02.235Z,82.99
2022-12-16T15:14:51.759Z,83.01
2022-12-16T15:17:39.943Z,83.12
2022-12-16T15:20:35.233Z,83.22
2022-12-16T15:23:20.295Z,83.44
2022-12-16T15:26:14.495Z,83.65
2022-12-16T15:29:02.788Z,83.71
2022-12-16T15:31:53.327Z,83.84
2022-12-16T15:34:38.391Z,83.66
2022-12-16T15:37:53.396Z,83.49
2022-12-16T15:40:52.437Z,83.55
2022-12-16T15:43:45.062Z,83.72
2022-12-16T15:46:56.359Z,83.49
2022-12-16T15:50:04.104Z,83.36
2022-12-16T15:52:52.396Z,83.35
2022-12-16T15:56:04.699Z,83.77
2022-12-16T15:58:59.440Z,83.90
2022-12-16T16:01:46.593Z,83.21
2022-12-16T16:04:38.076Z,83.38
2022-12-16T16:07:32.345Z,83.66
2022-12-16T16:10:35.599Z,83.83
2022-12-16T16:13:20.769Z,84.23
2022-12-16T16:16:07.919Z,84.64
2022-12-16T16:18:53.434Z,84.59
2022-12-16T16:21:38.549Z,84.48
2022-12-16T16:24:24.083Z,84.89
2022-12-16T16:27:11.962Z,84.92
2022-12-16T16:29:57.241Z,84.51
2022-12-16T16:32:42.307Z,85.05
2022-12-16T16:35:27.437Z,84.50
2022-12-16T16:38:16.755Z,84.76
2022-12-16T16:41:03.831Z,84.75
2022-12-16T16:43:54.056Z,84.93
2022-12-16T16:46:39.029Z,85.17
2022-12-16T16:49:31.837Z,85.12
2022-12-16T16:52:19.624Z,84.80
2022-12-16T16:55:04.943Z,84.91
2022-12-16T16:57:53.009Z,85.19
2022-12-16T17:00:37.875Z,85.51
2022-12-16T17:03:23.272Z,85.12
2022-12-16T17:06:11.121Z,84.93
2022-12-16T17:08:56.096Z,84.58
2022-12-16T17:11:41.958Z,85.30
2022-12-16T17:14:36.739Z,84.91
2022-12-16T17:17:22.940Z,85.39
2022-12-16T17:20:08.540Z,84.66
2022-12-16T17:22:53.964Z,85.27
2022-12-16T17:25:42.569Z,84.74
2022-12-16T17:28:29.422Z,85.04
2022-12-16T17:31:14.924Z,84.75
2022-12-16T17:33:59.930Z,84.60
2022-12-16T17:36:45.221Z,85.22
2022-12-16T17:39:30.388Z,85.18
2022-12-16T17:42:16.200Z,85.21
2022-12-16T17:45:01.321Z,85.48
2022-12-16T17:47:46.229Z,85.51
2022-12-16T17:50:33.799Z,85.42
2022-12-16T17:53:21.222Z,85.94
2022-12-16T17:56:07.505Z,85.97
2022-12-16T17:58:57.079Z,85.71
2022-12-16T18:01:43.804Z,86.03
2022-12-16T18:04:28.853Z,86.22
2022-12-16T18:07:16.687Z,86.74
2022-12-16T18:10:02.408Z,86.31
2022-12-16T18:12:48.208Z,86.74
2022-12-16T18:15:33.374Z,86.04
2022-12-16T18:18:18.871Z,86.35
2022-12-16T18:21:04.139Z,86.25
2022-12-16T18:23:51.481Z,87.00
2022-12-16T18:26:36.700Z,86.19
2022-12-16T18:29:24.503Z,86.47
2022-12-16T18:32:12.085Z,86.09
2022-12-16T18:34:59.797Z,86.55
2022-12-16T18:37:44.911Z,86.27
2022-12-16T18:40:32.813Z,86.57
2022-12-16T18:43:20.964Z,86.14
2022-12-16T18:46:17.902Z,86.23
2022-12-16T18:49:03.001Z,85.90
2022-12-16T18:51:48.514Z,85.90
2022-12-16T18:54:33.450Z,86.25
2022-12-16T18:57:18.565Z,85.80
2022-12-16T19:00:03.981Z,86.60
2022-12-16T19:02:49.104Z,85.44
2022-12-16T19:05:34.465Z,86.96
2022-12-16T19:08:19.748Z,86.86
2022-12-16T19:11:15.497Z,86.04
2022-12-16T19:14:00.737Z,86.17
2022-12-16T19:16:45.537Z,86.01
2022-12-16T19:19:30.903Z,86.05
2022-12-16T19:22:18.675Z,85.98
2022-12-16T19:25:03.676Z,85.71
2022-12-16T19:27:48.902Z,86.46
2022-12-16T19:30:34.010Z,86.24
2022-12-16T19:33:18.958Z,86.44
2022-12-16T19:36:06.707Z,86.30
2022-12-16T19:38:52.039Z,86.19
2022-12-16T19:41:40.103Z,86.01
2022-12-16T19:44:25.283Z,86.02
2022-12-16T19:47:10.453Z,86.17
2022-12-16T19:49:56.173Z,85.89
2022-12-16T19:52:41.651Z,86.13
2022-12-16T19:55:27.036Z,86.48
2022-12-16T19:58:11.997Z,86.50
2022-12-16T20:00:57.477Z,85.98
2022-12-16T20:03:42.861Z,86.14
2022-12-16T20:06:28.300Z,86.34
2022-12-16T20:09:14.645Z,85.90
2022-12-16T20:12:01.032Z,86.20
2022-12-16T20:14:46.560Z,86.03
2022-12-16T20:17:36.723Z,86.00
2022-12-16T20:20:21.929Z,85.67
2022-12-16T20:23:09.695Z,85.18
2022-12-16T20:29:02.490Z,85.23
2022-12-16T20:31:50.703Z,85.12
2022-12-16T20:34:39.245Z,85.17
2022-12-16T20:37:24.565Z,85.29
2022-12-16T20:40:11.834Z,85.19
2022-12-16T20:42:57.049Z,86.29
2022-12-16T20:45:42.160Z,86.14
2022-12-16T20:48:32.374Z,86.17
2022-12-16T20:51:26.259Z,85.80
2022-12-16T20:54:11.862Z,85.56
2022-12-16T20:57:12.829Z,86.23
2022-12-16T21:00:01.072Z,86.02
2022-12-16T21:02:46.333Z,86.03
2022-12-16T21:05:31.601Z,85.82
2022-12-16T21:08:16.630Z,85.99
2022-12-16T21:11:03.385Z,86.28
2022-12-16T21:13:49.374Z,85.83
2022-12-16T21:16:34.906Z,86.30
2022-12-16T21:19:25.499Z,87.02
2022-12-16T21:22:13.204Z,86.46
2022-12-16T21:24:58.203Z,86.36
2022-12-16T21:27:43.328Z,86.17
2022-12-16T21:30:29.021Z,86.50
2022-12-16T21:33:14.450Z,86.96
2022-12-16T21:35:59.694Z,86.70
2022-12-16T21:38:44.469Z,86.70
2022-12-16T21:41:32.005Z,86.28
2022-12-16T21:44:17.120Z,86.55
2022-12-16T21:47:02.118Z,86.78
2022-12-16T21:49:47.393Z,86.49
2022-12-16T21:52:32.260Z,87.05
2022-12-16T21:55:17.654Z,86.82
2022-12-16T21:58:02.509Z,87.57
2022-12-16T22:00:49.025Z,87.03
2022-12-16T22:03:35.733Z,87.33
2022-12-16T22:06:21.282Z,87.27
2022-12-16T22:09:06.395Z,87.70
2022-12-16T22:11:51.751Z,87.23
2022-12-16T22:14:36.958Z,87.31
2022-12-16T22:17:24.849Z,87.22
2022-12-16T22:20:10.028Z,87.54
2022-12-16T22:22:55.291Z,87.08
2022-12-16T22:25:41.051Z,87.01
2022-12-16T22:28:25.932Z,87.03
2022-12-16T22:31:16.144Z,87.21
2022-12-16T22:34:01.846Z,87.30
2022-12-16T22:36:47.336Z,86.93
2022-12-16T22:39:32.839Z,86.93
2022-12-16T22:42:17.944Z,87.49
2022-12-16T22:45:02.907Z,87.05
2022-12-16T22:47:49.716Z,87.18
2022-12-16T22:50:35.199Z,86.73
2022-12-16T22:53:21.746Z,86.96
2022-12-16T22:56:14.531Z,87.28
2022-12-16T22:58:59.792Z,86.92
2022-12-16T23:01:44.903Z,86.90
2022-12-16T23:04:30.049Z,86.91
2022-12-16T23:07:14.999Z,86.79
2022-12-16T23:10:00.229Z,86.71
2022-12-16T23:12:45.380Z,87.41
2022-12-16T23:15:31.458Z,87.33
2022-12-16T23:18:18.372Z,86.96
2022-12-16T23:21:09.797Z,86.91
2022-12-16T23:23:57.548Z,87.04
2022-12-16T23:26:43.178Z,87.40
2022-12-16T23:29:31.169Z,87.25
2022-12-16T23:32:16.145Z,87.19
2022-12-16T23:35:01.269Z,86.95
2022-12-16T23:37:46.532Z,86.79
2022-12-16T23:40:34.226Z,87.32
2022-12-16T23:43:19.442Z,86.72
2022-12-16T23:46:04.624Z,86.82
2022-12-16T23:48:49.735Z,86.30
2022-12-16T23:51:37.182Z,86.94
2022-12-16T23:54:22.669Z,86.52
2022-12-16T23:57:07.924Z,86.62
2022-12-16T23:59:54.025Z,86.69
